createdAt,value
2018-08-09T00:00:50.190Z,92.76
2018-08-09T00:01:50.170Z,92.76
2018-08-09T00:02:50.152Z,92.28
2018-08-09T00:03:50.134Z,92.38
2018-08-09T00:04:50.114Z,93.05
2018-08-09T00:05:50.099Z,92.76
2018-08-09T00:06:50.081Z,92.76
2018-08-09T00:07:50.062Z,92.57
2018-08-09T00:08:50.044Z,93.33
2018-08-09T00:09:50.027Z,93.15
2018-08-09T00:10:50.010Z,93.24
2018-08-09T00:11:49.992Z,93.15
2018-08-09T00:12:49.973Z,93.62
2018-08-09T00:13:49.955Z,93.58
2018-08-09T00:14:49.939Z,93.43
2018-08-09T00:15:49.921Z,93.72
2018-08-09T00:16:49.901Z,93.72
2018-08-09T00:17:49.888Z,93.33
2018-08-09T00:18:49.865Z,93.24
2018-08-09T00:19:49.847Z,93.24
2018-08-09T00:20:49.835Z,93.05
2018-08-09T00:21:49.812Z,92.76
2018-08-09T00:22:49.793Z,92.76
2018-08-09T00:23:49.839Z,92.47
2018-08-09T00:24:49.760Z,91.99
2018-08-09T00:25:49.739Z,91.80
2018-08-09T00:26:49.722Z,91.31
2018-08-09T00:27:49.703Z,91.31
2018-08-09T00:28:49.684Z,91.41
2018-08-09T00:29:49.667Z,91.31
2018-08-09T00:30:49.650Z,91.99
2018-08-09T00:31:49.631Z,92.08
2018-08-09T00:32:49.613Z,92.04
2018-08-09T00:33:49.595Z,92.76
2018-08-09T00:34:49.576Z,92.52
2018-08-09T00:35:49.560Z,92.52
2018-08-09T00:36:49.542Z,92.71
2018-08-09T00:37:49.523Z,93.10
2018-08-09T00:38:49.504Z,93.19
2018-08-09T00:39:49.488Z,93.19
2018-08-09T00:40:49.468Z,93.19
2018-08-09T00:41:49.449Z,93.58
2018-08-09T00:42:49.433Z,93.87
2018-08-09T00:43:49.413Z,93.44
2018-08-09T00:44:49.395Z,93.68
2018-08-09T00:45:49.378Z,93.34
2018-08-09T00:46:49.360Z,94.21
2018-08-09T00:47:49.341Z,94.40
2018-08-09T00:48:49.322Z,94.78
2018-08-09T00:49:49.305Z,95.26
2018-08-09T00:50:49.286Z,95.07
2018-08-09T00:51:49.268Z,95.26
2018-08-09T00:52:49.249Z,95.17
2018-08-09T00:53:49.232Z,95.36
2018-08-09T00:54:49.214Z,95.17
2018-08-09T00:55:49.196Z,94.98
2018-08-09T00:56:49.176Z,95.55
2018-08-09T00:57:49.163Z,96.17
2018-08-09T00:58:49.141Z,96.27
2018-08-09T00:59:49.121Z,96.17
2018-08-09T01:00:49.104Z,96.56
2018-08-09T01:01:49.086Z,96.80
2018-08-09T01:02:49.067Z,97.42
2018-08-09T01:03:49.050Z,96.85
2018-08-09T01:04:49.031Z,96.94
2018-08-09T01:05:49.013Z,97.52
2018-08-09T01:06:48.995Z,97.81
2018-08-09T01:07:48.976Z,98.00
2018-08-09T01:08:48.956Z,97.71
2018-08-09T01:09:48.939Z,97.33
2018-08-09T01:10:48.922Z,97.81
2018-08-09T01:11:48.904Z,97.42
2018-08-09T01:12:48.884Z,97.71
2018-08-09T01:13:48.868Z,97.42
2018-08-09T01:14:48.847Z,97.71
2018-08-09T01:15:48.831Z,97.33
2018-08-09T01:16:48.811Z,97.62
2018-08-09T01:17:48.792Z,97.62
2018-08-09T01:18:48.773Z,97.62
2018-08-09T01:19:48.757Z,97.81
2018-08-09T01:20:48.736Z,97.62
2018-08-09T01:21:48.719Z,98.58
2018-08-09T01:22:48.700Z,99.10
2018-08-09T01:23:48.681Z,98.34
2018-08-09T01:24:48.666Z,98.53
2018-08-09T01:25:48.645Z,98.43
2018-08-09T01:26:48.627Z,99.20
2018-08-09T01:27:48.608Z,98.82
2018-08-09T01:28:48.589Z,98.53
2018-08-09T01:29:48.572Z,98.82
2018-08-09T01:30:48.554Z,98.82
2018-08-09T01:31:48.536Z,99.01
2018-08-09T01:32:48.519Z,98.82
2018-08-09T01:33:48.496Z,98.24
2018-08-09T01:34:48.478Z,98.63
2018-08-09T01:35:48.463Z,99.01
2018-08-09T01:36:48.441Z,99.01
2018-08-09T01:37:48.423Z,99.10
2018-08-09T01:38:48.403Z,98.24
2018-08-09T01:39:48.389Z,99.01
2018-08-09T01:40:48.367Z,98.96
2018-08-09T01:41:48.348Z,99.34
2018-08-09T01:42:48.329Z,99.82
2018-08-09T01:43:48.310Z,99.73
2018-08-09T01:44:48.294Z,99.63
2018-08-09T01:45:48.272Z,99.44
2018-08-09T01:46:48.255Z,99.73
2018-08-09T01:47:48.236Z,99.82
2018-08-09T01:48:48.217Z,99.82
2018-08-09T01:49:48.198Z,99.99
2018-08-09T01:50:48.181Z,99.44
2018-08-09T01:51:48.160Z,99.29
2018-08-09T01:52:48.141Z,99.68
2018-08-09T01:53:48.123Z,99.99
2018-08-09T01:54:48.107Z,99.99
2018-08-09T01:55:48.086Z,99.99
2018-08-09T01:56:48.073Z,99.99
2018-08-09T01:57:48.048Z,99.99
2018-08-09T01:58:48.031Z,99.99
2018-08-09T01:59:48.012Z,99.99
2018-08-09T02:00:47.997Z,99.99
2018-08-09T02:01:47.975Z,99.99
2018-08-09T02:02:47.955Z,99.99
2018-08-09T02:03:47.936Z,99.99
2018-08-09T02:04:47.969Z,99.99
2018-08-09T02:05:47.897Z,99.99
2018-08-09T02:06:47.881Z,99.99
2018-08-09T02:07:47.919Z,99.87
2018-08-09T02:08:47.841Z,99.99
2018-08-09T02:09:47.823Z,99.99
2018-08-09T02:10:47.811Z,99.58
2018-08-09T02:11:47.785Z,99.99
2018-08-09T02:12:47.766Z,99.99
2018-08-09T02:13:47.747Z,99.99
2018-08-09T02:14:47.727Z,99.99
2018-08-09T02:15:47.710Z,99.87
2018-08-09T02:16:47.689Z,99.99
2018-08-09T02:17:47.672Z,99.99
2018-08-09T02:18:47.653Z,99.99
2018-08-09T02:19:47.633Z,99.99
2018-08-09T02:20:47.615Z,99.96
2018-08-09T02:21:47.595Z,99.99
2018-08-09T02:22:47.576Z,99.99
2018-08-09T02:23:47.558Z,99.99
2018-08-09T02:24:47.537Z,99.99
2018-08-09T02:25:47.519Z,99.99
2018-08-09T02:26:47.500Z,99.99
2018-08-09T02:27:47.480Z,99.99
2018-08-09T02:28:47.462Z,99.99
2018-08-09T02:29:47.443Z,99.99
2018-08-09T02:30:47.424Z,99.99
2018-08-09T02:31:47.404Z,99.99
2018-08-09T02:32:47.386Z,99.99
2018-08-09T02:33:47.365Z,99.99
2018-08-09T02:34:47.347Z,99.99
2018-08-09T02:35:47.328Z,99.99
2018-08-09T02:36:47.310Z,99.99
2018-08-09T02:37:47.289Z,99.99
2018-08-09T02:38:47.271Z,99.99
2018-08-09T02:39:47.251Z,99.99
2018-08-09T02:40:47.230Z,99.99
2018-08-09T02:41:47.212Z,99.99
2018-08-09T02:42:47.196Z,99.99
2018-08-09T02:43:47.175Z,99.99
2018-08-09T02:44:47.156Z,99.99
2018-08-09T02:45:47.135Z,99.99
2018-08-09T02:46:47.132Z,99.99
2018-08-09T02:47:47.098Z,99.99
2018-08-09T02:48:47.078Z,99.99
2018-08-09T02:49:47.061Z,99.99
2018-08-09T02:50:47.040Z,99.99
2018-08-09T02:51:47.025Z,99.99
2018-08-09T02:52:47.000Z,99.99
2018-08-09T02:53:46.981Z,99.99
2018-08-09T02:54:46.962Z,99.99
2018-08-09T02:55:46.954Z,99.99
2018-08-09T02:56:46.924Z,99.99
2018-08-09T02:57:46.907Z,99.99
2018-08-09T02:58:46.887Z,99.99
2018-08-09T02:59:46.871Z,99.99
2018-08-09T03:00:46.847Z,99.99
2018-08-09T03:01:46.828Z,99.99
2018-08-09T03:02:46.807Z,99.99
2018-08-09T03:03:46.788Z,99.99
2018-08-09T03:04:46.769Z,99.99
2018-08-09T03:05:46.749Z,99.99
2018-08-09T03:06:46.732Z,99.99
2018-08-09T03:07:46.710Z,99.99
2018-08-09T03:08:46.690Z,99.99
2018-08-09T03:09:46.674Z,99.99
2018-08-09T03:10:46.651Z,99.99
2018-08-09T03:11:46.631Z,99.99
2018-08-09T03:12:46.611Z,99.99
2018-08-09T03:13:46.594Z,99.99
2018-08-09T03:14:46.573Z,99.99
2018-08-09T03:15:46.556Z,99.99
2018-08-09T03:16:46.535Z,99.99
2018-08-09T03:17:46.515Z,99.99
2018-08-09T03:18:46.496Z,99.99
2018-08-09T03:19:46.475Z,99.99
2018-08-09T03:20:46.457Z,99.99
2018-08-09T03:21:46.436Z,99.99
2018-08-09T03:22:46.418Z,99.99
2018-08-09T03:23:46.397Z,99.99
2018-08-09T03:24:46.376Z,99.99
2018-08-09T03:25:46.359Z,99.99
2018-08-09T03:26:46.339Z,99.99
2018-08-09T03:27:46.320Z,99.99
2018-08-09T03:28:46.301Z,99.99
2018-08-09T03:29:46.279Z,99.99
2018-08-09T03:30:46.260Z,99.99
2018-08-09T03:31:46.242Z,99.99
2018-08-09T03:32:46.221Z,99.99
2018-08-09T03:33:46.202Z,99.99
2018-08-09T03:34:46.182Z,99.99
2018-08-09T03:35:46.162Z,99.99
2018-08-09T03:36:46.142Z,99.99
2018-08-09T03:37:46.123Z,99.99
2018-08-09T03:38:46.101Z,99.99
2018-08-09T03:39:46.084Z,99.99
2018-08-09T03:40:46.063Z,99.99
2018-08-09T03:41:46.044Z,99.99
2018-08-09T03:42:46.026Z,99.99
2018-08-09T03:43:46.005Z,99.99
2018-08-09T03:44:45.983Z,99.99
2018-08-09T03:45:45.963Z,99.99
2018-08-09T03:46:45.945Z,99.99
2018-08-09T03:47:45.924Z,99.99
2018-08-09T03:48:45.905Z,99.99
2018-08-09T03:49:45.885Z,99.99
2018-08-09T03:50:45.867Z,99.99
2018-08-09T03:51:45.845Z,99.99
2018-08-09T03:52:45.828Z,99.99
2018-08-09T03:53:45.806Z,99.99
2018-08-09T03:54:45.789Z,99.99
2018-08-09T03:55:45.776Z,99.99
2018-08-09T03:56:45.761Z,99.99
2018-08-09T03:57:45.727Z,99.99
2018-08-09T03:58:45.705Z,99.99
2018-08-09T03:59:45.719Z,99.99
2018-08-09T04:00:45.668Z,99.99
2018-08-09T04:01:45.648Z,99.99
2018-08-09T04:02:45.627Z,99.99
2018-08-09T04:03:45.608Z,99.99
2018-08-09T04:04:45.590Z,99.99
2018-08-09T04:05:45.570Z,99.99
2018-08-09T04:06:45.549Z,99.99
2018-08-09T04:07:45.529Z,99.99
2018-08-09T04:08:45.510Z,99.99
2018-08-09T04:09:45.488Z,99.99
2018-08-09T04:10:45.468Z,99.99
2018-08-09T04:11:45.516Z,99.99
2018-08-09T04:12:45.429Z,99.99
2018-08-09T04:13:45.408Z,99.99
2018-08-09T04:14:45.389Z,99.99
2018-08-09T04:15:45.369Z,99.99
2018-08-09T04:16:45.353Z,99.99
2018-08-09T04:17:45.331Z,99.99
2018-08-09T04:18:45.311Z,99.99
2018-08-09T04:19:45.297Z,99.99
2018-08-09T04:20:45.270Z,99.99
2018-08-09T04:21:45.250Z,99.99
2018-08-09T04:22:45.230Z,99.99
2018-08-09T04:23:45.211Z,99.99
2018-08-09T04:24:45.191Z,99.99
2018-08-09T04:25:45.171Z,99.99
2018-08-09T04:26:45.151Z,99.99
2018-08-09T04:27:45.133Z,99.99
2018-08-09T04:28:45.112Z,99.99
2018-08-09T04:29:45.093Z,99.99
2018-08-09T04:30:45.078Z,99.99
2018-08-09T04:31:45.059Z,99.99
2018-08-09T04:32:45.037Z,99.99
2018-08-09T04:33:45.016Z,99.99
2018-08-09T04:34:44.995Z,99.99
2018-08-09T04:35:44.975Z,99.99
2018-08-09T04:36:44.957Z,99.99
2018-08-09T04:37:44.935Z,99.99
2018-08-09T04:38:44.915Z,99.99
2018-08-09T04:39:44.898Z,99.99
2018-08-09T04:40:44.877Z,99.99
2018-08-09T04:41:44.857Z,99.99
2018-08-09T04:42:44.840Z,99.99
2018-08-09T04:43:44.820Z,99.99
2018-08-09T04:44:44.799Z,99.99
2018-08-09T04:45:44.778Z,99.99
2018-08-09T04:46:44.762Z,99.99
2018-08-09T04:47:44.742Z,99.99
2018-08-09T04:48:44.721Z,99.99
2018-08-09T04:49:44.700Z,99.99
2018-08-09T04:50:44.682Z,99.99
2018-08-09T04:51:44.662Z,99.99
2018-08-09T04:52:44.644Z,99.99
2018-08-09T04:53:44.623Z,99.99
2018-08-09T04:54:44.607Z,99.99
2018-08-09T04:55:44.587Z,99.99
2018-08-09T04:56:44.566Z,99.99
2018-08-09T04:57:44.547Z,99.99
2018-08-09T04:58:44.531Z,99.99
2018-08-09T04:59:44.508Z,99.99
2018-08-09T05:00:44.491Z,99.68
2018-08-09T05:01:44.472Z,99.78
2018-08-09T05:02:44.452Z,99.40
2018-08-09T05:03:44.435Z,99.20
2018-08-09T05:04:44.413Z,99.01
2018-08-09T05:05:44.396Z,98.63
2018-08-09T05:06:44.381Z,98.24
2018-08-09T05:07:44.359Z,99.01
2018-08-09T05:08:44.339Z,98.24
2018-08-09T05:09:44.322Z,99.06
2018-08-09T05:10:44.303Z,98.91
2018-08-09T05:11:44.289Z,98.86
2018-08-09T05:12:44.266Z,98.68
2018-08-09T05:13:44.245Z,98.39
2018-08-09T05:14:44.228Z,97.81
2018-08-09T05:15:44.209Z,98.10
2018-08-09T05:16:44.191Z,98.19
2018-08-09T05:17:44.172Z,97.76
2018-08-09T05:18:44.153Z,97.38
2018-08-09T05:19:44.135Z,96.90
2018-08-09T05:20:44.115Z,96.61
2018-08-09T05:21:44.098Z,95.45
2018-08-09T05:22:44.080Z,95.07
2018-08-09T05:23:44.063Z,95.17
2018-08-09T05:24:44.041Z,94.88
2018-08-09T05:25:44.022Z,94.21
2018-08-09T05:26:44.005Z,94.21
2018-08-09T05:27:43.986Z,94.64
2018-08-09T05:28:43.967Z,94.35
2018-08-09T05:29:43.948Z,94.15
2018-08-09T05:30:43.930Z,93.87
2018-08-09T05:31:43.912Z,93.68
2018-08-09T05:32:43.894Z,92.57
2018-08-09T05:33:43.875Z,92.18
2018-08-09T05:34:43.858Z,91.03
2018-08-09T05:35:43.840Z,92.38
2018-08-09T05:36:43.820Z,91.41
2018-08-09T05:37:43.805Z,89.34
2018-08-09T05:38:43.785Z,88.38
2018-08-09T05:39:43.767Z,87.80
2018-08-09T05:40:43.749Z,86.78
2018-08-09T05:41:43.730Z,85.96
2018-08-09T05:42:43.713Z,85.86
2018-08-09T05:43:43.697Z,84.27
2018-08-09T05:44:43.681Z,82.86
2018-08-09T05:45:43.659Z,82.18
2018-08-09T05:46:43.642Z,81.76
2018-08-09T05:47:43.627Z,81.95
2018-08-09T05:48:43.608Z,81.32
2018-08-09T05:49:43.589Z,79.62
2018-08-09T05:50:43.577Z,77.76
2018-08-09T05:51:43.556Z,75.39
2018-08-09T05:52:43.656Z,72.62
2018-08-09T05:53:43.523Z,72.46
2018-08-09T05:54:43.506Z,71.04
2018-08-09T05:55:43.489Z,70.31
2018-08-09T05:56:43.472Z,67.82
2018-08-09T05:57:43.457Z,66.47
2018-08-09T05:58:43.440Z,66.02
2018-08-09T05:59:43.426Z,65.50
2018-08-09T06:00:43.411Z,66.92
2018-08-09T06:01:43.393Z,68.40
2018-08-09T06:02:43.382Z,70.50
2018-08-09T06:03:43.366Z,71.81
2018-08-09T06:04:43.349Z,72.94
2018-08-09T06:05:43.400Z,73.52
2018-08-09T06:06:43.318Z,73.46
2018-08-09T06:07:43.302Z,71.26
2018-08-09T06:08:43.290Z,70.76
2018-08-09T06:09:43.271Z,67.98
2018-08-09T06:10:43.257Z,66.66
2018-08-09T06:11:43.240Z,65.43
2018-08-09T06:12:43.225Z,63.72
2018-08-09T06:13:43.210Z,63.36
2018-08-09T06:14:43.195Z,61.81
2018-08-09T06:15:43.183Z,60.68
2018-08-09T06:16:43.170Z,60.68
2018-08-09T06:17:43.153Z,60.77
2018-08-09T06:18:43.156Z,60.12
2018-08-09T06:19:43.125Z,58.50
2018-08-09T06:20:43.111Z,57.82
2018-08-09T06:21:43.096Z,56.95
2018-08-09T06:22:43.083Z,56.85
2018-08-09T06:23:43.070Z,57.62
2018-08-09T06:24:43.056Z,57.62
2018-08-09T06:25:43.065Z,56.87
2018-08-09T06:26:43.116Z,57.56
2018-08-09T06:27:43.017Z,56.15
2018-08-09T06:28:43.048Z,54.57
2018-08-09T06:29:42.989Z,54.01
2018-08-09T06:30:43.000Z,54.38
2018-08-09T06:31:42.965Z,56.20
2018-08-09T06:32:42.951Z,56.49
2018-08-09T06:33:42.939Z,56.22
2018-08-09T06:34:42.926Z,56.03
2018-08-09T06:35:42.913Z,56.20
2018-08-09T06:36:42.899Z,56.95
2018-08-09T06:37:42.889Z,57.07
2018-08-09T06:38:42.875Z,57.17
2018-08-09T06:39:42.863Z,56.10
2018-08-09T06:40:42.850Z,55.61
2018-08-09T06:41:42.838Z,56.29
2018-08-09T06:42:42.828Z,56.68
2018-08-09T06:43:42.813Z,56.07
2018-08-09T06:44:42.800Z,56.59
2018-08-09T06:45:42.789Z,56.87
2018-08-09T06:46:42.776Z,56.22
2018-08-09T06:47:42.798Z,54.96
2018-08-09T06:48:42.750Z,54.69
2018-08-09T06:49:42.740Z,54.57
2018-08-09T06:50:42.728Z,55.15
2018-08-09T06:51:42.715Z,56.71
2018-08-09T06:52:42.705Z,55.27
2018-08-09T06:53:42.692Z,53.94
2018-08-09T06:54:42.679Z,54.13
2018-08-09T06:55:42.668Z,53.94
2018-08-09T06:56:42.655Z,52.38
2018-08-09T06:57:42.643Z,52.89
2018-08-09T06:58:42.632Z,52.22
2018-08-09T06:59:42.619Z,51.63
2018-08-09T07:00:42.608Z,50.95
2018-08-09T07:01:42.596Z,51.36
2018-08-09T07:02:42.583Z,50.12
2018-08-09T07:03:42.576Z,49.22
2018-08-09T07:04:42.560Z,49.02
2018-08-09T07:05:42.567Z,49.78
2018-08-09T07:06:42.567Z,49.78
2018-08-09T07:07:42.574Z,49.58
2018-08-09T07:08:42.539Z,49.95
2018-08-09T07:09:42.503Z,50.85
2018-08-09T07:10:42.490Z,50.29
2018-08-09T07:11:42.482Z,48.75
2018-08-09T07:12:42.529Z,48.17
2018-08-09T07:13:42.457Z,48.80
2018-08-09T07:14:42.450Z,50.99
2018-08-09T07:15:42.436Z,53.38
2018-08-09T07:16:42.422Z,53.91
2018-08-09T07:17:42.413Z,56.43
2018-08-09T07:18:42.402Z,56.34
2018-08-09T07:19:42.389Z,55.65
2018-08-09T07:20:42.377Z,55.36
2018-08-09T07:21:42.367Z,55.07
2018-08-09T07:22:42.354Z,54.39
2018-08-09T07:23:42.346Z,54.15
2018-08-09T07:24:42.330Z,51.97
2018-08-09T07:25:42.319Z,51.73
2018-08-09T07:26:42.307Z,49.05
2018-08-09T07:27:42.294Z,48.19
2018-08-09T07:28:42.284Z,46.44
2018-08-09T07:29:42.277Z,48.17
2018-08-09T07:30:42.259Z,48.00
2018-08-09T07:31:42.252Z,47.63
2018-08-09T07:32:42.236Z,46.68
2018-08-09T07:33:42.279Z,46.56
2018-08-09T07:34:42.245Z,46.26
2018-08-09T07:35:42.212Z,46.73
2018-08-09T07:36:42.197Z,47.31
2018-08-09T07:37:42.181Z,45.87
2018-08-09T07:38:42.168Z,45.43
2018-08-09T07:39:42.193Z,45.68
2018-08-09T07:40:42.151Z,45.61
2018-08-09T07:41:42.136Z,45.68
2018-08-09T07:42:42.126Z,46.66
2018-08-09T07:43:42.114Z,45.51
2018-08-09T07:44:42.102Z,44.84
2018-08-09T07:45:42.093Z,43.79
2018-08-09T07:46:42.084Z,43.54
2018-08-09T07:47:42.079Z,43.81
2018-08-09T07:48:42.069Z,45.51
2018-08-09T07:49:42.051Z,44.63
2018-08-09T07:50:42.041Z,44.73
2018-08-09T07:51:42.031Z,44.84
2018-08-09T07:52:42.022Z,44.55
2018-08-09T07:53:42.010Z,43.87
2018-08-09T07:54:42.001Z,44.28
2018-08-09T07:55:41.991Z,44.18
2018-08-09T07:56:41.980Z,43.49
2018-08-09T07:57:41.969Z,45.04
2018-08-09T07:58:41.959Z,44.45
2018-08-09T07:59:41.949Z,44.18
2018-08-09T08:00:41.942Z,43.67
2018-08-09T08:01:41.928Z,44.26
2018-08-09T08:02:41.919Z,43.85
2018-08-09T08:03:41.910Z,44.24
2018-08-09T08:04:41.899Z,44.43
2018-08-09T08:05:41.889Z,44.26
2018-08-09T08:06:41.879Z,44.38
2018-08-09T08:07:41.868Z,42.74
2018-08-09T08:08:41.858Z,42.76
2018-08-09T08:09:41.847Z,42.27
2018-08-09T08:10:41.864Z,42.56
2018-08-09T08:11:41.828Z,41.76
2018-08-09T08:12:41.844Z,41.49
2018-08-09T08:13:41.807Z,41.29
2018-08-09T08:14:41.798Z,42.27
2018-08-09T08:15:41.786Z,41.80
2018-08-09T08:16:41.775Z,41.60
2018-08-09T08:17:44.046Z,40.25
2018-08-09T08:18:43.805Z,40.80
2018-08-09T08:19:42.591Z,39.84
2018-08-09T08:20:42.024Z,40.16
2018-08-09T08:21:42.429Z,40.45
2018-08-09T08:22:41.717Z,40.84
2018-08-09T08:23:41.709Z,39.59
2018-08-09T08:24:41.700Z,39.37
2018-08-09T08:25:41.689Z,40.64
2018-08-09T08:26:41.696Z,40.27
2018-08-09T08:27:41.674Z,39.51
2018-08-09T08:28:41.660Z,39.88
2018-08-09T08:29:41.650Z,38.80
2018-08-09T08:30:41.641Z,38.90
2018-08-09T08:31:41.632Z,38.43
2018-08-09T08:32:41.623Z,38.04
2018-08-09T08:33:41.614Z,37.84
2018-08-09T08:34:41.689Z,37.76
2018-08-09T08:35:41.595Z,37.65
2018-08-09T08:36:41.586Z,38.12
2018-08-09T08:37:41.577Z,37.65
2018-08-09T08:38:41.567Z,36.98
2018-08-09T08:39:41.557Z,37.76
2018-08-09T08:40:41.547Z,37.76
2018-08-09T08:41:41.679Z,37.92
2018-08-09T08:42:41.529Z,38.90
2018-08-09T08:43:41.520Z,38.60
2018-08-09T08:44:41.510Z,38.93
2018-08-09T08:45:41.501Z,37.19
2018-08-09T08:46:41.493Z,35.66
2018-08-09T08:47:41.484Z,36.15
2018-08-09T08:48:41.474Z,36.22
2018-08-09T08:49:41.466Z,36.91
2018-08-09T08:50:41.457Z,36.70
2018-08-09T08:51:41.448Z,36.52
2018-08-09T08:52:41.438Z,37.78
2018-08-09T08:53:41.430Z,37.66
2018-08-09T08:54:41.420Z,36.78
2018-08-09T08:55:41.420Z,37.84
2018-08-09T08:56:41.403Z,37.61
2018-08-09T08:57:41.395Z,39.04
2018-08-09T08:58:41.387Z,38.94
2018-08-09T08:59:41.376Z,39.45
2018-08-09T09:00:41.366Z,38.67
2018-08-09T09:01:41.358Z,37.90
2018-08-09T09:02:41.402Z,37.13
2018-08-09T09:03:41.339Z,37.94
2018-08-09T09:04:41.332Z,37.15
2018-08-09T09:05:41.321Z,37.25
2018-08-09T09:06:41.344Z,37.84
2018-08-09T09:07:41.304Z,37.76
2018-08-09T09:08:41.292Z,37.54
2018-08-09T09:09:41.283Z,37.15
2018-08-09T09:10:41.276Z,36.84
2018-08-09T09:11:41.266Z,36.58
2018-08-09T09:12:41.256Z,36.76
2018-08-09T09:13:41.262Z,36.76
2018-08-09T09:14:41.241Z,37.63
2018-08-09T09:15:41.228Z,37.65
2018-08-09T09:16:41.221Z,36.66
2018-08-09T09:17:41.210Z,36.19
2018-08-09T09:18:41.201Z,36.11
2018-08-09T09:19:41.192Z,34.83
2018-08-09T09:20:41.183Z,35.31
2018-08-09T09:21:41.173Z,35.97
2018-08-09T09:22:41.164Z,36.47
2018-08-09T09:23:41.155Z,36.39
2018-08-09T09:24:41.147Z,35.97
2018-08-09T09:25:41.138Z,36.47
2018-08-09T09:26:41.130Z,36.25
2018-08-09T09:27:41.120Z,36.65
2018-08-09T09:28:41.110Z,35.68
2018-08-09T09:29:41.101Z,34.33
2018-08-09T09:30:41.094Z,34.11
2018-08-09T09:31:41.085Z,34.78
2018-08-09T09:32:41.075Z,36.37
2018-08-09T09:33:41.069Z,35.39
2018-08-09T09:34:41.056Z,35.19
2018-08-09T09:35:41.051Z,35.41
2018-08-09T09:36:41.039Z,34.81
2018-08-09T09:37:41.029Z,36.51
2018-08-09T09:38:41.024Z,34.26
2018-08-09T09:39:41.012Z,33.75
2018-08-09T09:40:41.004Z,33.07
2018-08-09T09:41:40.996Z,33.44
2018-08-09T09:42:41.032Z,33.85
2018-08-09T09:43:40.977Z,34.47
2018-08-09T09:44:40.968Z,32.81
2018-08-09T09:45:40.960Z,32.87
2018-08-09T09:46:40.952Z,33.26
2018-08-09T09:47:40.943Z,32.78
2018-08-09T09:48:40.935Z,32.97
2018-08-09T09:49:40.948Z,32.01
2018-08-09T09:50:40.918Z,31.82
2018-08-09T09:51:40.910Z,31.84
2018-08-09T09:52:40.902Z,32.02
2018-08-09T09:53:40.891Z,33.38
2018-08-09T09:54:40.883Z,33.77
2018-08-09T09:55:40.878Z,33.18
2018-08-09T09:56:40.866Z,33.36
2018-08-09T09:57:40.858Z,35.10
2018-08-09T09:58:40.849Z,35.29
2018-08-09T09:59:40.841Z,34.83
2018-08-09T10:00:40.832Z,34.34
2018-08-09T10:01:40.858Z,34.36
2018-08-09T10:02:40.816Z,33.20
2018-08-09T10:03:40.807Z,32.62
2018-08-09T10:04:40.798Z,32.14
2018-08-09T10:05:40.790Z,33.77
2018-08-09T10:06:40.781Z,34.67
2018-08-09T10:07:40.773Z,32.90
2018-08-09T10:08:40.766Z,34.18
2018-08-09T10:09:40.757Z,33.65
2018-08-09T10:10:40.749Z,33.10
2018-08-09T10:11:40.744Z,32.31
2018-08-09T10:12:40.778Z,33.67
2018-08-09T10:13:40.725Z,33.79
2018-08-09T10:14:40.738Z,33.29
2018-08-09T10:15:40.707Z,33.22
2018-08-09T10:16:40.700Z,34.08
2018-08-09T10:17:40.690Z,34.83
2018-08-09T10:18:40.682Z,35.23
2018-08-09T10:19:40.707Z,34.85
2018-08-09T10:20:40.663Z,34.66
2018-08-09T10:21:40.659Z,34.46
2018-08-09T10:22:40.647Z,35.74
2018-08-09T10:23:40.641Z,33.22
2018-08-09T10:24:40.632Z,33.41
2018-08-09T10:25:40.624Z,32.54
2018-08-09T10:26:40.614Z,33.31
2018-08-09T10:27:40.610Z,33.22
2018-08-09T10:28:40.597Z,33.33
2018-08-09T10:29:40.590Z,32.77
2018-08-09T10:30:40.581Z,31.18
2018-08-09T10:31:40.574Z,32.36
2018-08-09T10:32:40.564Z,32.43
2018-08-09T10:33:40.556Z,33.25
2018-08-09T10:34:40.549Z,32.87
2018-08-09T10:35:40.542Z,31.28
2018-08-09T10:36:40.534Z,32.24
2018-08-09T10:37:40.530Z,32.77
2018-08-09T10:38:40.517Z,31.79
2018-08-09T10:39:40.508Z,33.61
2018-08-09T10:40:40.499Z,34.47
2018-08-09T10:41:40.494Z,35.16
2018-08-09T10:42:40.548Z,34.54
2018-08-09T10:43:40.476Z,34.58
2018-08-09T10:44:40.467Z,33.72
2018-08-09T10:45:40.459Z,33.12
2018-08-09T10:46:40.451Z,32.82
2018-08-09T10:47:40.444Z,33.15
2018-08-09T10:48:40.434Z,33.44
2018-08-09T10:49:40.432Z,33.31
2018-08-09T10:50:40.420Z,34.95
2018-08-09T10:51:40.411Z,34.64
2018-08-09T10:52:40.402Z,35.34
2018-08-09T10:53:40.394Z,34.06
2018-08-09T10:54:40.384Z,34.26
2018-08-09T10:55:40.403Z,34.74
2018-08-09T10:56:40.368Z,35.33
2018-08-09T10:57:40.360Z,35.62
2018-08-09T10:58:40.352Z,35.55
2018-08-09T10:59:40.343Z,33.62
2018-08-09T11:00:40.334Z,33.31
2018-08-09T11:01:40.368Z,33.39
2018-08-09T11:02:40.318Z,33.98
2018-08-09T11:03:40.309Z,33.77
2018-08-09T11:04:40.301Z,35.03
2018-08-09T11:05:40.292Z,35.27
2018-08-09T11:06:40.285Z,35.08
2018-08-09T11:07:40.276Z,36.66
2018-08-09T11:08:40.327Z,36.35
2018-08-09T11:09:40.257Z,37.00
2018-08-09T11:10:40.256Z,37.88
2018-08-09T11:11:40.241Z,38.57
2018-08-09T11:12:40.229Z,38.20
2018-08-09T11:13:40.221Z,38.29
2018-08-09T11:14:40.213Z,37.92
2018-08-09T11:15:40.203Z,36.74
2018-08-09T11:16:40.193Z,35.31
2018-08-09T11:17:40.185Z,33.97
2018-08-09T11:18:40.176Z,33.97
2018-08-09T11:19:40.173Z,34.66
2018-08-09T11:20:40.157Z,34.93
2018-08-09T11:21:40.148Z,34.75
2018-08-09T11:22:40.139Z,35.23
2018-08-09T11:23:40.155Z,35.26
2018-08-09T11:24:40.120Z,34.38
2018-08-09T11:25:40.112Z,34.10
2018-08-09T11:26:40.104Z,32.84
2018-08-09T11:27:40.093Z,32.74
2018-08-09T11:28:40.084Z,33.36
2018-08-09T11:29:40.079Z,31.97
2018-08-09T11:30:40.066Z,32.84
2018-08-09T11:31:40.058Z,33.33
2018-08-09T11:32:40.047Z,33.61
2018-08-09T11:33:40.038Z,33.72
2018-08-09T11:34:40.034Z,32.65
2018-08-09T11:35:40.033Z,32.89
2018-08-09T11:36:40.014Z,31.59
2018-08-09T11:37:40.004Z,32.65
2018-08-09T11:38:39.997Z,32.57
2018-08-09T11:39:39.986Z,31.59
2018-08-09T11:40:39.978Z,32.41
2018-08-09T11:41:39.969Z,35.05
2018-08-09T11:42:39.961Z,35.24
2018-08-09T11:43:39.954Z,33.22
2018-08-09T11:44:39.941Z,32.87
2018-08-09T11:45:40.219Z,30.93
2018-08-09T11:46:39.925Z,29.86
2018-08-09T11:47:39.917Z,29.88
2018-08-09T11:48:39.907Z,29.38
2018-08-09T11:49:39.900Z,29.89
2018-08-09T11:50:39.890Z,30.17
2018-08-09T11:51:39.882Z,30.16
2018-08-09T11:52:39.874Z,30.52
2018-08-09T11:53:39.866Z,31.80
2018-08-09T11:54:39.858Z,32.10
2018-08-09T11:55:39.849Z,31.49
2018-08-09T11:56:39.891Z,33.05
2018-08-09T11:57:39.832Z,34.11
2018-08-09T11:58:39.824Z,34.30
2018-08-09T11:59:39.815Z,33.61
2018-08-09T12:00:39.806Z,32.84
2018-08-09T12:01:39.882Z,33.12
2018-08-09T12:02:39.789Z,34.66
2018-08-09T12:03:39.780Z,35.50
2018-08-09T12:04:39.801Z,36.78
2018-08-09T12:05:39.762Z,36.57
2018-08-09T12:06:39.757Z,37.65
2018-08-09T12:07:39.746Z,37.82
2018-08-09T12:08:39.735Z,38.29
2018-08-09T12:09:39.726Z,38.88
2018-08-09T12:10:39.717Z,37.82
2018-08-09T12:11:39.708Z,36.99
2018-08-09T12:12:39.699Z,36.42
2018-08-09T12:13:39.800Z,35.08
2018-08-09T12:14:39.679Z,35.16
2018-08-09T12:15:39.671Z,35.38
2018-08-09T12:16:39.663Z,33.17
2018-08-09T12:17:39.651Z,32.10
2018-08-09T12:18:39.642Z,31.42
2018-08-09T12:19:39.634Z,30.94
2018-08-09T12:20:39.635Z,31.03
2018-08-09T12:21:39.615Z,32.79
2018-08-09T12:22:39.609Z,32.87
2018-08-09T12:23:39.598Z,32.46
2018-08-09T12:24:39.589Z,33.53
2018-08-09T12:25:39.580Z,33.92
2018-08-09T12:26:39.578Z,34.11
2018-08-09T12:27:39.564Z,33.74
2018-08-09T12:28:39.555Z,32.89
2018-08-09T12:29:39.544Z,32.31
2018-08-09T12:30:39.536Z,30.69
2018-08-09T12:31:39.529Z,30.65
2018-08-09T12:32:39.518Z,32.29
2018-08-09T12:33:39.512Z,33.18
2018-08-09T12:34:39.501Z,33.07
2018-08-09T12:35:39.492Z,33.74
2018-08-09T12:36:39.531Z,34.17
2018-08-09T12:37:39.475Z,33.38
2018-08-09T12:38:39.467Z,32.32
2018-08-09T12:39:39.458Z,31.07
2018-08-09T12:40:39.449Z,31.01
2018-08-09T12:41:39.440Z,28.85
2018-08-09T12:42:39.432Z,29.64
2018-08-09T12:43:39.428Z,29.72
2018-08-09T12:44:39.415Z,29.51
2018-08-09T12:45:39.457Z,28.72
2018-08-09T12:46:39.399Z,28.65
2018-08-09T12:47:39.391Z,29.54
2018-08-09T12:48:39.385Z,30.00
2018-08-09T12:49:39.376Z,29.61
2018-08-09T12:50:39.395Z,30.06
2018-08-09T12:51:39.365Z,31.87
2018-08-09T12:52:39.352Z,31.82